createdAt,value
2018-10-15T00:01:10.456Z,98051.71
2018-10-15T00:03:39.704Z,98052.19
2018-10-15T00:06:08.879Z,98055.21
2018-10-15T00:08:38.107Z,98063.31
2018-10-15T00:11:07.304Z,98071.05
2018-10-15T00:13:36.496Z,98071.56
2018-10-15T00:16:06.364Z,98080.93
2018-10-15T00:18:35.648Z,98079.63
2018-10-15T00:21:05.019Z,98079.23
2018-10-15T00:23:34.199Z,98088.63
2018-10-15T00:26:03.376Z,98081.87
2018-10-15T00:28:32.577Z,98080.23
2018-10-15T00:31:01.752Z,98079.03
2018-10-15T00:33:30.975Z,98080.30
2018-10-15T00:36:00.140Z,98083.73
2018-10-15T00:38:29.323Z,98095.37
2018-10-15T00:40:58.500Z,98094.25
2018-10-15T00:43:27.688Z,98106.56
2018-10-15T00:45:56.889Z,98104.86
2018-10-15T00:48:26.081Z,98105.29
2018-10-15T00:50:55.269Z,98102.41
2018-10-15T00:53:24.447Z,98105.40
2018-10-15T00:55:53.664Z,98103.72
2018-10-15T00:58:22.840Z,98100.88
2018-10-15T01:00:52.023Z,98107.28
2018-10-15T01:03:21.195Z,98121.62
2018-10-15T01:05:50.396Z,98139.38
2018-10-15T01:08:19.600Z,98158.84
2018-10-15T01:10:48.787Z,98182.11
2018-10-15T01:13:17.959Z,98390.88
2018-10-15T01:15:47.143Z,98295.78
2018-10-15T01:18:16.327Z,98303.41
2018-10-15T01:20:45.515Z,98311.88
2018-10-15T01:23:14.691Z,98318.63
2018-10-15T01:25:43.875Z,98323.69
2018-10-15T01:28:13.055Z,98318.21
2018-10-15T01:30:42.244Z,98296.23
2018-10-15T01:33:11.421Z,98249.36
2018-10-15T01:35:40.608Z,98246.41
2018-10-15T01:38:09.819Z,98187.70
2018-10-15T01:40:38.994Z,98066.53
2018-10-15T01:43:08.259Z,97401.17
2018-10-15T01:45:37.515Z,97605.98
2018-10-15T01:48:06.898Z,97514.80
2018-10-15T01:50:36.120Z,97517.29
2018-10-15T01:53:05.344Z,97653.63
2018-10-15T01:55:34.536Z,97662.03
2018-10-15T01:58:03.724Z,97662.94
2018-10-15T02:00:32.907Z,97660.55
2018-10-15T02:03:02.090Z,97722.66
2018-10-15T02:05:31.281Z,97712.96
2018-10-15T02:08:00.464Z,97695.52
2018-10-15T02:10:29.659Z,97706.08
2018-10-15T02:12:58.839Z,97708.66
2018-10-15T02:15:28.019Z,97792.27
2018-10-15T02:17:57.207Z,97797.77
2018-10-15T02:20:26.396Z,97799.06
2018-10-15T02:22:55.582Z,97801.64
2018-10-15T02:25:24.759Z,97818.16
2018-10-15T02:27:53.932Z,97798.73
2018-10-15T02:30:23.134Z,97785.16
2018-10-15T02:32:52.371Z,97779.20
2018-10-15T02:35:21.580Z,97769.86
2018-10-15T02:37:50.798Z,97776.63
2018-10-15T02:40:20.003Z,97775.83
2018-10-15T02:42:49.227Z,97776.73
2018-10-15T02:45:18.432Z,97771.70
2018-10-15T02:47:47.638Z,97770.89
2018-10-15T02:50:16.849Z,97762.51
2018-10-15T02:52:46.059Z,97743.13
2018-10-15T02:55:15.255Z,97674.39
2018-10-15T02:57:44.463Z,97676.05
2018-10-15T03:00:14.446Z,97741.39
2018-10-15T03:02:44.366Z,97738.88
2018-10-15T03:05:13.866Z,97738.05
2018-10-15T03:07:43.379Z,97742.18
2018-10-15T03:10:12.587Z,97743.05
2018-10-15T03:12:41.795Z,97753.96
2018-10-15T03:15:11.677Z,97755.20
2018-10-15T03:17:40.900Z,97759.84
2018-10-15T03:20:11.345Z,97762.78
2018-10-15T03:22:41.234Z,97769.56
2018-10-15T03:25:11.234Z,97772.06
2018-10-15T03:27:40.749Z,97777.16
2018-10-15T03:30:11.180Z,97787.69
2018-10-15T03:32:40.977Z,97790.64
2018-10-15T03:35:11.211Z,97789.81
2018-10-15T03:37:40.478Z,97786.49
2018-10-15T03:40:09.682Z,97790.31
2018-10-15T03:42:38.890Z,97786.09
2018-10-15T03:45:08.235Z,97780.23
2018-10-15T03:47:37.444Z,97781.05
2018-10-15T03:50:07.271Z,97783.56
2018-10-15T03:52:36.483Z,97786.53
2018-10-15T03:55:05.741Z,97785.28
2018-10-15T03:57:34.943Z,97794.22
2018-10-15T04:00:04.166Z,97795.13
2018-10-15T04:02:33.428Z,97802.75
2018-10-15T04:05:02.593Z,97793.93
2018-10-15T04:07:31.800Z,97788.83
2018-10-15T04:10:01.020Z,97787.14
2018-10-15T04:12:30.221Z,97785.42
2018-10-15T04:14:59.424Z,97789.22
2018-10-15T04:17:28.627Z,97792.16
2018-10-15T04:19:57.840Z,97799.73
2018-10-15T04:22:27.159Z,97803.97
2018-10-15T04:24:56.363Z,97818.73
2018-10-15T04:27:25.580Z,97841.49
2018-10-15T04:29:54.794Z,97840.23
2018-10-15T04:32:23.992Z,97841.98
2018-10-15T04:34:53.211Z,97839.03
2018-10-15T04:37:22.413Z,97832.30
2018-10-15T04:39:51.631Z,97839.47
2018-10-15T04:42:20.939Z,97731.27
2018-10-15T04:44:50.133Z,97699.69
2018-10-15T04:47:19.348Z,97687.91
2018-10-15T04:49:48.612Z,97660.52
2018-10-15T04:52:17.775Z,97652.13
2018-10-15T04:54:46.987Z,97634.90
2018-10-15T04:57:16.207Z,97628.16
2018-10-15T04:59:45.399Z,97624.80
2018-10-15T05:02:14.606Z,97622.29
2018-10-15T05:04:43.802Z,97713.97
2018-10-15T05:07:13.012Z,97705.59
2018-10-15T05:09:42.263Z,97698.00
2018-10-15T05:12:11.453Z,97685.38
2018-10-15T05:14:40.723Z,97671.91
2018-10-15T05:17:09.924Z,97669.83
2018-10-15T05:19:39.132Z,97671.06
2018-10-15T05:22:08.346Z,97653.41
2018-10-15T05:24:37.557Z,97640.36
2018-10-15T05:27:07.462Z,97650.06
2018-10-15T05:29:36.662Z,97654.69
2018-10-15T05:32:06.244Z,97652.56
2018-10-15T05:34:35.450Z,97660.13
2018-10-15T05:37:04.668Z,97663.51
2018-10-15T05:39:33.867Z,97663.87
2018-10-15T05:42:03.107Z,97669.34
2018-10-15T05:44:32.288Z,97682.36
2018-10-15T05:47:01.578Z,97698.42
2018-10-15T05:49:30.739Z,97708.50
2018-10-15T05:51:59.967Z,97755.23
2018-10-15T05:54:29.155Z,97757.34
2018-10-15T05:56:58.356Z,97766.16
2018-10-15T05:59:27.608Z,97769.52
2018-10-15T06:01:56.815Z,97774.14
2018-10-15T06:04:26.023Z,97780.88
2018-10-15T06:06:55.228Z,97777.08
2018-10-15T06:09:24.437Z,97776.67
2018-10-15T06:11:53.607Z,97769.97
2018-10-15T06:14:22.850Z,97774.16
2018-10-15T06:16:51.978Z,97776.70
2018-10-15T06:19:21.162Z,97780.10
2018-10-15T06:21:50.343Z,97783.03
2018-10-15T06:24:19.553Z,97790.61
2018-10-15T06:26:48.703Z,97796.89
2018-10-15T06:29:17.875Z,97802.36
2018-10-15T06:31:47.047Z,97804.84
2018-10-15T06:34:16.239Z,97810.75
2018-10-15T06:36:45.407Z,97824.19
2018-10-15T06:39:14.621Z,97824.16
2018-10-15T06:41:43.766Z,97830.92
2018-10-15T06:44:12.947Z,97830.03
2018-10-15T06:46:42.164Z,97830.83
2018-10-15T06:49:11.391Z,97831.22
2018-10-15T06:51:40.518Z,97832.84
2018-10-15T06:54:09.735Z,97848.43
2018-10-15T06:56:38.909Z,97849.69
2018-10-15T06:59:08.133Z,97858.53
2018-10-15T07:01:37.263Z,97864.41
2018-10-15T07:04:06.792Z,97863.55
2018-10-15T07:06:35.905Z,97882.06
2018-10-15T07:09:07.929Z,97883.76
2018-10-15T07:11:37.137Z,97893.42
2018-10-15T07:14:06.396Z,97905.63
2018-10-15T07:16:35.560Z,97917.40
2018-10-15T07:19:04.783Z,97928.77
2018-10-15T07:21:33.995Z,97934.66
2018-10-15T07:24:03.278Z,97936.80
2018-10-15T07:26:32.431Z,97938.02
2018-10-15T07:29:01.640Z,97937.97
2018-10-15T07:31:30.847Z,97937.53
2018-10-15T07:34:00.128Z,97942.87
2018-10-15T07:36:29.288Z,97945.75
2018-10-15T07:38:58.500Z,97945.77
2018-10-15T07:41:27.707Z,97949.98
2018-10-15T07:43:56.931Z,97953.77
2018-10-15T07:46:26.381Z,97958.73
2018-10-15T07:48:55.440Z,97963.31
2018-10-15T07:51:24.656Z,97968.36
2018-10-15T07:53:53.867Z,97973.92
2018-10-15T07:56:23.145Z,97979.40
2018-10-15T07:58:52.328Z,97983.64
2018-10-15T08:01:21.557Z,97982.72
2018-10-15T08:03:50.768Z,97987.30
2018-10-15T08:06:19.993Z,97991.05
2018-10-15T08:08:49.234Z,97993.84
2018-10-15T08:11:18.379Z,97994.73
2018-10-15T08:13:47.559Z,97997.15
2018-10-15T08:16:16.811Z,97995.34
2018-10-15T08:18:45.938Z,97997.52
2018-10-15T08:21:15.190Z,98001.26
2018-10-15T08:23:44.304Z,98007.35
2018-10-15T08:26:13.555Z,98010.61
2018-10-15T08:28:42.671Z,98012.39
2018-10-15T08:31:11.859Z,98014.22
2018-10-15T08:33:41.039Z,98020.84
2018-10-15T08:36:10.230Z,98017.91
2018-10-15T08:38:39.407Z,98020.06
2018-10-15T08:41:08.605Z,98015.72
2018-10-15T08:43:37.831Z,98017.08
2018-10-15T08:46:07.536Z,98015.89
2018-10-15T08:48:36.739Z,98012.74
2018-10-15T08:51:06.802Z,98007.56
2018-10-15T08:53:35.949Z,98006.64
2018-10-15T08:56:05.365Z,98004.65
2018-10-15T08:58:34.426Z,98008.71
2018-10-15T09:01:03.631Z,98007.05
2018-10-15T09:03:32.785Z,98008.94
2018-10-15T09:06:01.970Z,98014.35
2018-10-15T09:08:31.227Z,98011.70
2018-10-15T09:11:00.473Z,98018.11
2018-10-15T09:13:29.607Z,98023.27
2018-10-15T09:15:58.883Z,98023.55
2018-10-15T09:18:28.028Z,98018.98
2018-10-15T09:20:57.296Z,98020.84
2018-10-15T09:23:26.460Z,98025.41
2018-10-15T09:25:55.679Z,98030.73
2018-10-15T09:28:24.882Z,98029.66
2018-10-15T09:30:54.170Z,98021.22
2018-10-15T09:33:23.323Z,98010.14
2018-10-15T09:35:52.507Z,98011.96
2018-10-15T09:38:21.783Z,98011.76
2018-10-15T09:40:50.980Z,98003.81
2018-10-15T09:43:20.151Z,98000.41
2018-10-15T09:45:49.462Z,97993.26
2018-10-15T09:48:18.572Z,97975.26
2018-10-15T09:50:47.795Z,97966.78
2018-10-15T09:53:17.029Z,97965.53
2018-10-15T09:55:46.187Z,97965.98
2018-10-15T09:58:15.391Z,97966.12
2018-10-15T10:00:54.738Z,97961.23
2018-10-15T10:03:23.928Z,97950.45
2018-10-15T10:05:53.190Z,97956.01
2018-10-15T10:08:22.363Z,97962.42
2018-10-15T10:10:51.591Z,97959.41
2018-10-15T10:13:20.761Z,97956.27
2018-10-15T10:15:49.941Z,97944.53
2018-10-15T10:18:19.226Z,97943.30
2018-10-15T10:20:48.345Z,97927.84
2018-10-15T10:23:17.508Z,97927.61
2018-10-15T10:25:46.712Z,97919.02
2018-10-15T10:28:15.947Z,97927.41
2018-10-15T10:30:45.072Z,97938.14
2018-10-15T10:33:14.228Z,97926.11
2018-10-15T10:35:56.016Z,97949.47
2018-10-15T10:38:45.991Z,97933.97
2018-10-15T10:41:15.183Z,97965.55
2018-10-15T10:43:44.362Z,97892.38
2018-10-15T10:46:13.600Z,97882.20
2018-10-15T10:48:42.780Z,97926.17
2018-10-15T10:51:12.039Z,97892.15
2018-10-15T10:53:41.320Z,97867.11
2018-10-15T10:56:10.616Z,97880.87
2018-10-15T10:58:39.864Z,97886.41
2018-10-15T11:01:09.487Z,97861.64
2018-10-15T11:03:39.286Z,97856.46
2018-10-15T11:06:08.471Z,97855.66
2018-10-15T11:08:37.717Z,97838.85
2018-10-15T11:11:07.096Z,97833.05
2018-10-15T11:13:36.292Z,97839.50
2018-10-15T11:16:05.806Z,97847.02
2018-10-15T11:18:35.051Z,97850.27
2018-10-15T11:21:04.351Z,97838.64
2018-10-15T11:23:33.432Z,97830.86
2018-10-15T11:26:02.619Z,97822.11
2018-10-15T11:28:31.775Z,97816.61
2018-10-15T11:31:00.957Z,97809.70
2018-10-15T11:33:30.218Z,97804.19
2018-10-15T11:35:59.396Z,97807.17
2018-10-15T11:38:28.559Z,97811.55
2018-10-15T11:40:57.742Z,97807.78
2018-10-15T11:43:26.991Z,97821.23
2018-10-15T11:45:56.100Z,97817.69
2018-10-15T11:48:25.263Z,97820.05
2018-10-15T11:50:54.447Z,97818.05
2018-10-15T11:53:23.623Z,97821.22
2018-10-15T11:55:52.821Z,97827.69
2018-10-15T11:58:22.028Z,97827.51
2018-10-15T12:00:51.194Z,97828.61
2018-10-15T12:03:20.366Z,97828.86
2018-10-15T12:05:49.543Z,97833.86
2018-10-15T12:08:18.732Z,97825.92
2018-10-15T12:10:47.958Z,97828.67
2018-10-15T12:13:17.151Z,97832.98
2018-10-15T12:15:46.362Z,97827.56
2018-10-15T12:18:15.568Z,97826.27
2018-10-15T12:20:44.784Z,97827.19
2018-10-15T12:23:13.977Z,97829.36
2018-10-15T12:25:43.190Z,97836.02
2018-10-15T12:28:12.389Z,97828.45
2018-10-15T12:30:41.607Z,97836.98
2018-10-15T12:33:10.807Z,97833.52
2018-10-15T12:35:40.037Z,97836.22
2018-10-15T12:38:09.240Z,97833.40
2018-10-15T12:40:38.447Z,97830.20
2018-10-15T12:43:07.645Z,97841.89
2018-10-15T12:45:41.939Z,97837.05
2018-10-15T12:48:11.154Z,97837.30
2018-10-15T12:50:40.351Z,97834.10
2018-10-15T12:53:09.555Z,97834.81
2018-10-15T12:55:38.763Z,97830.80
2018-10-15T12:58:07.982Z,97835.42
2018-10-15T13:00:37.187Z,97829.66
2018-10-15T13:03:06.933Z,97831.53
2018-10-15T13:05:36.145Z,97833.99
2018-10-15T13:08:05.454Z,97834.59
2018-10-15T13:10:34.647Z,97833.12
2018-10-15T13:13:03.859Z,97829.81
2018-10-15T13:15:33.067Z,97826.11
2018-10-15T13:18:02.263Z,97828.77
2018-10-15T13:20:31.455Z,97823.23
2018-10-15T13:23:00.671Z,97826.54
2018-10-15T13:25:29.859Z,97821.85
2018-10-15T13:27:59.070Z,97827.40
2018-10-15T13:30:28.309Z,97820.91
2018-10-15T13:32:57.614Z,97816.84
2018-10-15T13:35:26.784Z,97817.95
2018-10-15T13:37:55.983Z,97813.50
2018-10-15T13:40:25.180Z,97803.53
2018-10-15T13:42:54.400Z,97803.39
2018-10-15T13:45:23.602Z,97800.28
2018-10-15T13:47:52.809Z,97812.09
2018-10-15T13:50:21.999Z,97809.12
2018-10-15T13:52:51.289Z,97809.36
2018-10-15T13:55:20.459Z,97815.20
2018-10-15T13:57:49.655Z,97814.17
2018-10-15T14:00:32.027Z,97819.38
2018-10-15T14:03:01.259Z,97818.84
2018-10-15T14:05:30.455Z,97816.23
2018-10-15T14:07:59.655Z,97815.64
2018-10-15T14:10:28.835Z,97817.88
2018-10-15T14:12:58.049Z,97819.13
2018-10-15T14:15:27.214Z,97817.94
2018-10-15T14:17:56.440Z,97823.70
2018-10-15T14:20:25.683Z,97823.95
2018-10-15T14:22:54.863Z,97826.14
2018-10-15T14:25:24.031Z,97824.45
2018-10-15T14:27:53.199Z,97825.84
2018-10-15T14:30:22.372Z,97825.16
2018-10-15T14:32:51.548Z,97813.89
2018-10-15T14:35:20.727Z,97827.38
2018-10-15T14:37:49.903Z,97819.94
2018-10-15T14:40:20.264Z,97825.48
2018-10-15T14:42:49.444Z,97830.94
2018-10-15T14:45:18.976Z,97827.94
2018-10-15T14:47:48.151Z,97826.17
2018-10-15T14:50:19.632Z,97818.80
2018-10-15T14:52:51.883Z,97824.93
2018-10-15T14:55:21.395Z,97818.98
2018-10-15T14:57:50.577Z,97815.59
2018-10-15T15:00:19.990Z,97815.82
2018-10-15T15:02:49.196Z,97819.77
2018-10-15T15:05:18.375Z,97818.03
2018-10-15T15:07:47.633Z,97820.97
2018-10-15T15:10:33.803Z,97818.27
2018-10-15T15:13:20.208Z,97821.47
2018-10-15T15:15:49.348Z,97818.44
2018-10-15T15:18:18.527Z,97819.48
2018-10-15T15:20:47.707Z,97824.94
2018-10-15T15:23:16.872Z,97823.15
2018-10-15T15:25:46.061Z,97825.11
2018-10-15T15:28:15.240Z,97827.69
2018-10-15T15:30:44.444Z,97832.73
2018-10-15T15:33:13.619Z,97831.66
2018-10-15T15:35:42.794Z,97832.33
2018-10-15T15:38:12.792Z,97839.09
2018-10-15T15:40:41.974Z,97835.44
2018-10-15T15:43:11.150Z,97837.55
2018-10-15T15:45:40.469Z,97850.58
2018-10-15T15:48:09.539Z,97849.41
2018-10-15T15:50:38.707Z,97850.03
2018-10-15T15:53:07.908Z,97868.44
2018-10-15T15:55:37.095Z,97873.97
2018-10-15T15:58:06.906Z,97876.45
2018-10-15T16:00:36.070Z,97880.06
2018-10-15T16:03:06.107Z,97882.98
2018-10-15T16:05:35.279Z,97877.28
2018-10-15T16:08:04.483Z,97879.02
2018-10-15T16:10:33.723Z,97883.64
2018-10-15T16:13:02.899Z,97886.84
2018-10-15T16:15:32.079Z,97891.02
2018-10-15T16:18:01.271Z,97889.26
2018-10-15T16:20:30.443Z,97895.07
2018-10-15T16:22:59.632Z,97896.22
2018-10-15T16:25:28.807Z,97900.94
2018-10-15T16:27:57.998Z,97902.17
2018-10-15T16:30:27.161Z,97917.63
2018-10-15T16:32:56.353Z,97916.47
2018-10-15T16:35:25.528Z,97928.80
2018-10-15T16:37:54.707Z,97939.77
2018-10-15T16:40:23.884Z,97946.71
2018-10-15T16:42:53.070Z,97972.52
2018-10-15T16:45:22.303Z,97990.36
2018-10-15T16:47:51.422Z,97998.47
2018-10-15T16:50:20.595Z,98007.22
2018-10-15T16:52:49.790Z,98018.37
2018-10-15T16:55:18.979Z,98034.52
2018-10-15T16:57:48.169Z,98049.44
2018-10-15T17:00:17.391Z,98060.71
2018-10-15T17:02:46.644Z,98073.80
2018-10-15T17:05:15.924Z,98078.70
2018-10-15T17:07:45.144Z,98080.08
2018-10-15T17:10:15.262Z,98087.81
2018-10-15T17:12:44.449Z,98085.45
2018-10-15T17:15:14.866Z,98090.69
2018-10-15T17:17:44.289Z,98100.39
2018-10-15T17:20:13.520Z,98108.93
2018-10-15T17:22:43.515Z,98120.66
2018-10-15T17:25:12.991Z,98129.27
2018-10-15T17:27:42.919Z,98144.64
2018-10-15T17:30:13.120Z,98147.89
2018-10-15T17:32:43.426Z,98157.66
2018-10-15T17:35:12.664Z,98165.80
2018-10-15T17:37:42.318Z,98173.19
2018-10-15T17:40:12.979Z,98182.77
2018-10-15T17:42:42.266Z,98191.77
2018-10-15T17:45:14.234Z,98201.58
2018-10-15T17:47:44.451Z,98215.36
2018-10-15T17:50:13.640Z,98210.03
2018-10-15T17:52:42.845Z,98230.97
2018-10-15T17:55:13.175Z,98250.20
2018-10-15T17:57:42.355Z,98274.91
2018-10-15T18:00:18.548Z,98311.45
2018-10-15T18:02:47.744Z,98338.83
2018-10-15T18:05:16.923Z,98356.70
2018-10-15T18:07:46.108Z,98381.27
2018-10-15T18:10:15.350Z,98400.55
2018-10-15T18:12:44.829Z,98411.64
2018-10-15T18:15:14.048Z,98413.81
2018-10-15T18:17:43.251Z,98427.11
2018-10-15T18:20:12.484Z,98422.91
2018-10-15T18:22:41.738Z,98422.07
2018-10-15T18:25:11.540Z,98425.94
2018-10-15T18:27:41.035Z,98426.89
2018-10-15T18:30:11.971Z,98439.23
2018-10-15T18:32:42.090Z,98437.45
2018-10-15T18:35:11.496Z,98423.01
2018-10-15T18:37:40.753Z,98422.25
2018-10-15T18:40:10.267Z,98431.73
2018-10-15T18:42:39.712Z,98443.27
2018-10-15T18:45:09.283Z,98444.64
2018-10-15T18:47:39.023Z,98454.63
2018-10-15T18:50:11.375Z,98471.75
2018-10-15T18:52:40.623Z,98490.41
2018-10-15T18:55:09.996Z,98499.68
2018-10-15T18:57:39.380Z,98495.41
2018-10-15T19:00:11.175Z,98487.76
2018-10-15T19:02:40.443Z,98483.09
2018-10-15T19:05:09.647Z,98492.16
2018-10-15T19:07:38.868Z,98504.52
2018-10-15T19:10:09.376Z,98521.33
2018-10-15T19:12:38.987Z,98541.99
2018-10-15T19:15:09.840Z,98562.42
2018-10-15T19:17:39.532Z,98566.09
2018-10-15T19:20:10.868Z,98551.63
2018-10-15T19:22:40.087Z,98555.46
2018-10-15T19:25:09.471Z,98579.20
2018-10-15T19:27:38.990Z,98597.15
2018-10-15T19:30:11.102Z,98628.41
2018-10-15T19:32:40.380Z,98630.84
2018-10-15T19:35:10.266Z,98632.42
2018-10-15T19:37:39.726Z,98649.61
2018-10-15T19:40:08.935Z,98653.65
2018-10-15T19:42:38.200Z,98650.61
2018-10-15T19:45:07.622Z,98639.55
2018-10-15T19:47:36.840Z,98638.82
2018-10-15T19:50:07.932Z,98655.81
2018-10-15T19:52:37.193Z,98654.22
2018-10-15T19:55:07.434Z,98668.53
2018-10-15T19:57:36.989Z,98675.36
2018-10-15T20:00:10.763Z,98688.23
2018-10-15T20:02:39.976Z,98688.66
2018-10-15T20:05:09.635Z,98702.84
2018-10-15T20:07:39.152Z,98761.50
2018-10-15T20:10:11.594Z,98767.45
2018-10-15T20:12:41.759Z,98773.37
2018-10-15T20:15:11.801Z,98770.00
2018-10-15T20:17:41.474Z,98776.34
2018-10-15T20:20:11.471Z,98769.53
2018-10-15T20:22:40.723Z,98767.84
2018-10-15T20:25:11.501Z,98773.80
2018-10-15T20:27:41.127Z,98788.63
2018-10-15T20:30:11.578Z,98793.30
2018-10-15T20:32:40.836Z,98798.41
2018-10-15T20:35:11.339Z,98804.34
2018-10-15T20:37:40.570Z,98819.22
2018-10-15T20:40:10.703Z,98830.69
2018-10-15T20:42:40.080Z,98841.28
2018-10-15T20:45:09.378Z,98846.78
2018-10-15T20:47:38.908Z,98853.15
2018-10-15T20:50:09.136Z,98855.27
2018-10-15T20:52:39.082Z,98864.61
2018-10-15T20:55:09.318Z,98871.81
2018-10-15T20:57:38.832Z,98867.15
2018-10-15T21:00:09.739Z,98882.39
2018-10-15T21:02:39.305Z,98882.38
2018-10-15T21:05:08.937Z,98891.28
2018-10-15T21:07:38.440Z,98894.66
2018-10-15T21:10:07.756Z,98757.80
2018-10-15T21:12:36.972Z,98770.49
2018-10-15T21:15:07.319Z,98814.95
2018-10-15T21:17:36.631Z,98829.75
2018-10-15T21:20:06.512Z,98869.17
2018-10-15T21:22:35.843Z,98871.69
2018-10-15T21:25:05.427Z,98875.98
2018-10-15T21:27:34.663Z,98883.19
2018-10-15T21:30:03.965Z,98885.78
2018-10-15T21:32:33.267Z,98884.50
2018-10-15T21:35:02.555Z,98891.66
2018-10-15T21:37:31.775Z,98899.31
2018-10-15T21:40:01.041Z,98898.82
2018-10-15T21:42:30.345Z,98908.98
2018-10-15T21:44:59.643Z,98918.25
2018-10-15T21:47:28.891Z,98915.30
2018-10-15T21:49:58.098Z,98912.30
2018-10-15T21:52:27.351Z,98912.67
2018-10-15T21:54:56.699Z,98905.48
2018-10-15T21:57:26.037Z,98883.48
2018-10-15T21:59:55.320Z,98772.57
2018-10-15T22:02:24.583Z,98210.43
2018-10-15T22:04:53.901Z,98218.91
2018-10-15T22:07:23.167Z,98221.88
2018-10-15T22:09:56.557Z,98229.05
2018-10-15T22:12:25.751Z,98232.86
2018-10-15T22:14:54.934Z,98222.73
2018-10-15T22:17:24.228Z,98221.48
2018-10-15T22:19:53.427Z,98224.50
2018-10-15T22:22:22.742Z,98226.62
2018-10-15T22:24:51.972Z,98231.23
2018-10-15T22:27:21.173Z,98231.70
2018-10-15T22:29:50.397Z,98232.98
2018-10-15T22:32:19.559Z,98234.64
2018-10-15T22:34:48.751Z,98243.94
2018-10-15T22:37:18.020Z,98248.61
2018-10-15T22:39:47.226Z,98249.45
2018-10-15T22:42:16.426Z,98250.77
2018-10-15T22:44:45.653Z,98249.95
2018-10-15T22:47:14.883Z,98250.80
2018-10-15T22:49:44.182Z,98246.99
2018-10-15T22:52:13.675Z,98248.31
2018-10-15T22:54:43.009Z,98244.17
2018-10-15T22:57:12.852Z,98221.41
2018-10-15T22:59:42.156Z,98212.13
2018-10-15T23:02:11.656Z,98201.13
2018-10-15T23:04:40.883Z,98223.11
2018-10-15T23:07:10.292Z,98212.59
2018-10-15T23:09:39.581Z,98203.29
2018-10-15T23:12:08.774Z,98200.36
2018-10-15T23:14:38.016Z,98211.35
2018-10-15T23:17:07.301Z,98225.70
2018-10-15T23:19:36.559Z,98234.16
2018-10-15T23:22:06.398Z,98289.07
2018-10-15T23:24:35.630Z,98299.20
2018-10-15T23:27:04.941Z,98308.50
2018-10-15T23:29:34.207Z,98320.31
2018-10-15T23:32:03.498Z,98331.30
2018-10-15T23:34:32.721Z,98333.84
2018-10-15T23:37:01.996Z,98342.27
2018-10-15T23:39:31.232Z,98335.07
2018-10-15T23:42:00.540Z,98339.71
2018-10-15T23:44:29.824Z,98379.77
2018-10-15T23:46:59.764Z,98381.01
2018-10-15T23:49:29.018Z,98387.31
2018-10-15T23:51:58.332Z,98379.67
2018-10-15T23:54:27.596Z,98376.73
2018-10-15T23:56:56.888Z,98359.83
2018-10-15T23:59:26.360Z,98315.94
